Time;durP1;ratioP1;P1;durP2;ratioP2;P2;SDS_P1;SDS_P2;PMS_P1;PMS_P2;Temp;Humidity;BMP_temperature;BMP_pressure;BME280_temperature;BME280_humidity;BME280_pressure;Samples;Min_cycle;Max_cycle;Signal;HPM_P1;HPM_P2
2021/06/09 00:00:52;;;;;;;3.35;1.40;;;16.70;99.90;;;;;;5077001;28;20036;-72
2021/06/09 00:03:22;;;;;;;5.00;1.27;;;16.70;99.90;;;;;;5075299;28;20131;-72
2021/06/09 00:05:51;;;;;;;3.03;1.00;;;16.70;99.90;;;;;;5056631;28;20028;-72
2021/06/09 00:08:18;;;;;;;5.50;1.30;;;16.70;99.90;;;;;;5071189;28;20031;-72
2021/06/09 00:10:48;;;;;;;5.28;2.28;;;16.70;99.90;;;;;;5071686;28;20081;-73
2021/06/09 00:13:15;;;;;;;8.55;2.03;;;16.70;99.90;;;;;;5073028;28;20027;-72
2021/06/09 00:15:41;;;;;;;4.38;1.20;;;16.70;99.90;;;;;;5076430;28;20121;-73
2021/06/09 00:18:07;;;;;;;3.00;1.08;;;16.70;99.90;;;;;;5078653;28;20031;-72
2021/06/09 00:20:33;;;;;;;4.13;1.70;;;16.70;99.90;;;;;;5065429;28;20039;-72
2021/06/09 00:22:59;;;;;;;5.88;1.85;;;16.70;99.90;;;;;;5072642;28;20028;-72
2021/06/09 00:25:25;;;;;;;8.90;5.68;;;16.60;99.90;;;;;;5064755;28;20451;-72
2021/06/09 00:27:53;;;;;;;10.70;8.90;;;16.60;99.90;;;;;;5075772;28;20480;-72
2021/06/09 00:30:26;;;;;;;8.95;6.97;;;16.60;99.90;;;;;;5074110;28;20039;-72
2021/06/09 00:32:51;;;;;;;7.47;3.22;;;16.60;99.90;;;;;;5075391;28;20092;-72
2021/06/09 00:35:17;;;;;;;2.92;1.20;;;16.60;99.90;;;;;;5074314;28;20551;-72
2021/06/09 00:37:43;;;;;;;2.30;1.13;;;16.50;99.90;;;;;;5075661;28;20032;-72
2021/06/09 00:40:10;;;;;;;3.78;1.45;;;16.50;99.90;;;;;;5073715;28;20024;-72
2021/06/09 00:42:37;;;;;;;6.50;3.00;;;16.50;99.90;;;;;;5073049;28;20500;-72
2021/06/09 00:45:05;;;;;;;7.88;3.63;;;16.50;99.90;;;;;;5073884;28;20036;-73
2021/06/09 00:47:31;;;;;;;8.35;3.30;;;16.50;99.90;;;;;;5074364;28;20060;-72
2021/06/09 00:49:57;;;;;;;6.90;2.60;;;16.50;99.90;;;;;;5073824;28;20139;-72
2021/06/09 00:52:27;;;;;;;7.53;2.13;;;16.60;99.90;;;;;;5073958;28;20039;-72
2021/06/09 00:54:53;;;;;;;7.72;2.35;;;16.70;99.90;;;;;;5074520;28;20031;-72
2021/06/09 00:57:21;;;;;;;6.13;2.17;;;16.60;99.90;;;;;;5079176;28;20085;-72
2021/06/09 00:59:47;;;;;;;4.38;2.45;;;16.60;99.90;;;;;;5070817;28;20312;-72
2021/06/09 01:02:13;;;;;;;4.45;2.20;;;16.60;99.90;;;;;;5077837;28;20036;-72
2021/06/09 01:04:39;;;;;;;4.80;2.05;;;16.60;99.90;;;;;;5070626;28;20453;-73
2021/06/09 01:07:05;;;;;;;5.03;1.95;;;16.70;99.90;;;;;;5077742;28;20375;-72
2021/06/09 01:09:31;;;;;;;4.07;1.80;;;16.70;99.90;;;;;;5070335;28;20024;-73
2021/06/09 01:11:57;;;;;;;4.10;1.92;;;16.60;99.90;;;;;;5060875;28;20032;-72
2021/06/09 01:14:24;;;;;;;5.72;2.47;;;16.50;99.90;;;;;;5075029;28;20122;-72
2021/06/09 01:16:51;;;;;;;6.07;2.33;;;16.50;99.90;;;;;;5080841;28;20524;-72
2021/06/09 01:19:21;;;;;;;6.43;3.20;;;16.50;99.90;;;;;;5076266;28;20028;-72
2021/06/09 01:21:48;;;;;;;6.60;3.53;;;16.50;99.90;;;;;;5065340;28;20082;-72
2021/06/09 01:24:14;;;;;;;4.82;3.00;;;16.60;99.90;;;;;;5079137;28;20040;-73
2021/06/09 01:26:41;;;;;;;5.15;1.50;;;16.60;99.90;;;;;;5078550;28;20089;-72
2021/06/09 01:29:08;;;;;;;6.38;1.40;;;16.60;99.90;;;;;;5069235;28;20040;-72
2021/06/09 01:31:34;;;;;;;5.82;1.58;;;16.50;99.90;;;;;;5078098;28;20028;-73
2021/06/09 01:34:04;;;;;;;5.18;1.48;;;16.50;99.90;;;;;;5067076;28;20040;-72
2021/06/09 01:36:34;;;;;;;4.45;1.55;;;16.50;99.90;;;;;;5074034;28;20078;-72
2021/06/09 01:39:06;;;;;;;10.40;2.90;;;16.50;99.90;;;;;;5081876;28;20393;-73
2021/06/09 01:41:32;;;;;;;;;;;16.50;99.90;;;;;;5074653;28;20525;-73
2021/06/09 01:43:57;;;;;;;7.85;2.67;;;16.50;99.90;;;;;;5081912;28;19920;-72
2021/06/09 01:46:23;;;;;;;5.45;2.95;;;16.40;99.90;;;;;;5074881;28;20269;-73
2021/06/09 01:48:50;;;;;;;6.72;3.45;;;16.30;99.90;;;;;;5081022;28;20157;-72
2021/06/09 01:51:16;;;;;;;4.28;3.03;;;16.30;99.90;;;;;;5076501;28;20581;-72
2021/06/09 01:53:42;;;;;;;6.88;2.15;;;16.20;99.90;;;;;;5079482;28;20147;-73
2021/06/09 01:56:07;;;;;;;7.15;2.35;;;16.20;99.90;;;;;;5077513;28;20115;-72
2021/06/09 01:58:33;;;;;;;6.50;3.80;;;16.20;99.90;;;;;;5077838;28;20059;-72
2021/06/09 02:00:59;;;;;;;5.13;2.35;;;16.30;99.90;;;;;;5060099;28;20036;-72
2021/06/09 02:03:25;;;;;;;5.70;2.10;;;16.30;99.90;;;;;;5060085;28;20028;-73
2021/06/09 02:05:50;;;;;;;6.57;2.25;;;16.30;99.90;;;;;;5077943;28;20069;-73
2021/06/09 02:08:16;;;;;;;6.35;2.50;;;16.30;99.90;;;;;;5074157;28;20369;-73
2021/06/09 02:10:43;;;;;;;4.60;2.03;;;16.30;99.90;;;;;;5080095;28;20078;-73
2021/06/09 02:13:15;;;;;;;4.88;2.22;;;16.30;99.90;;;;;;5077610;28;20470;-72
2021/06/09 02:15:43;;;;;;;5.00;2.60;;;16.30;99.90;;;;;;5078638;28;20051;-73
2021/06/09 02:20:41;;;;;;;5.05;2.20;;;16.30;99.90;;;;;;5077465;28;20047;-72
2021/06/09 02:23:09;;;;;;;8.27;2.30;;;16.30;99.90;;;;;;5075160;28;20032;-73
2021/06/09 02:25:37;;;;;;;8.25;2.03;;;16.30;99.90;;;;;;5070107;28;20031;-72
2021/06/09 02:28:04;;;;;;;10.63;2.00;;;16.30;99.90;;;;;;5076913;28;20299;-72
2021/06/09 02:30:31;;;;;;;5.82;3.42;;;16.20;99.90;;;;;;5064632;28;20035;-73
2021/06/09 02:32:57;;;;;;;6.10;3.28;;;16.10;99.90;;;;;;5073611;28;20116;-73
2021/06/09 02:35:22;;;;;;;5.95;3.33;;;16.10;99.90;;;;;;5072191;28;20104;-72
2021/06/09 02:37:51;;;;;;;7.30;4.45;;;16.00;99.90;;;;;;5072164;28;20126;-72
2021/06/09 02:40:17;;;;;;;6.75;4.93;;;16.00;99.90;;;;;;5073375;28;20032;-73
2021/06/09 02:42:43;;;;;;;5.82;2.75;;;16.00;99.90;;;;;;5070693;28;20063;-72
2021/06/09 02:45:13;;;;;;;8.80;2.85;;;16.00;99.90;;;;;;5078553;28;20020;-72
2021/06/09 02:47:41;;;;;;;6.80;1.85;;;16.00;99.90;;;;;;5074509;28;20371;-73
2021/06/09 02:50:07;;;;;;;5.13;2.20;;;15.80;99.90;;;;;;5081081;28;20032;-72
2021/06/09 02:53:05;;;;;;;10.23;4.18;;;15.80;99.90;;;;;;5073979;28;20040;-72
2021/06/09 02:55:52;;;;;;;13.40;4.78;;;15.80;99.90;;;;;;5076094;28;20054;-72
2021/06/09 02:58:38;;;;;;;7.90;4.05;;;15.70;99.90;;;;;;5073042;28;20557;-72
2021/06/09 03:01:28;;;;;;;7.07;3.92;;;15.70;99.90;;;;;;5079944;28;20117;-73
2021/06/09 03:03:59;;;;;;;7.22;2.72;;;15.70;99.90;;;;;;5072707;28;20195;-73
2021/06/09 03:06:59;;;;;;;6.73;2.30;;;15.70;99.90;;;;;;5080695;28;20028;-73
2021/06/09 03:09:37;;;;;;;4.00;1.95;;;15.60;99.90;;;;;;5075827;28;20036;-72
2021/06/09 03:12:38;;;;;;;4.35;1.55;;;15.60;99.90;;;;;;5050999;28;20592;-72
2021/06/09 03:15:12;;;;;;;5.05;2.25;;;15.60;99.90;;;;;;5074963;28;20044;-72
2021/06/09 03:17:58;;;;;;;4.95;1.73;;;15.60;99.90;;;;;;5077871;28;20043;-72
2021/06/09 03:20:33;;;;;;;7.38;1.50;;;15.60;99.90;;;;;;5075607;28;20077;-72
2021/06/09 03:23:05;;;;;;;4.32;1.85;;;15.50;99.90;;;;;;5079550;28;20032;-72
2021/06/09 03:25:41;;;;;;;6.32;2.15;;;15.50;99.90;;;;;;5072824;28;20128;-72
2021/06/09 03:28:26;;;;;;;3.70;1.40;;;15.40;99.90;;;;;;5071124;28;20052;-72
2021/06/09 03:30:57;;;;;;;5.65;2.42;;;15.50;99.90;;;;;;5077879;28;20035;-72
2021/06/09 03:33:26;;;;;;;4.13;1.98;;;15.40;99.90;;;;;;5075747;28;20032;-72
2021/06/09 03:36:06;;;;;;;6.45;2.05;;;15.40;99.90;;;;;;5066276;28;20614;-72
2021/06/09 03:38:34;;;;;;;4.43;2.20;;;15.40;99.90;;;;;;5065678;28;20566;-73
2021/06/09 03:41:09;;;;;;;8.60;2.33;;;15.40;99.90;;;;;;5076884;28;20077;-72
2021/06/09 03:43:38;;;;;;;4.00;1.88;;;15.40;99.90;;;;;;5077092;28;20072;-72
2021/06/09 03:46:06;;;;;;;5.10;1.52;;;15.40;99.90;;;;;;5075945;28;20073;-72
2021/06/09 03:48:36;;;;;;;5.10;1.80;;;15.40;99.90;;;;;;5060901;28;20325;-72
2021/06/09 03:51:04;;;;;;;3.63;1.63;;;15.50;99.90;;;;;;5073634;28;20024;-73
2021/06/09 03:53:32;;;;;;;4.82;2.03;;;15.30;99.90;;;;;;5076081;28;20473;-73
2021/06/09 03:56:01;;;;;;;5.78;2.05;;;15.30;99.90;;;;;;5076656;28;20454;-73
2021/06/09 03:58:27;;;;;;;3.90;1.52;;;15.40;99.90;;;;;;5072107;28;20028;-72
2021/06/09 04:00:55;;;;;;;6.80;1.95;;;15.40;99.90;;;;;;5079626;28;20043;-72
2021/06/09 04:03:22;;;;;;;5.60;1.60;;;15.40;99.90;;;;;;5073571;28;20060;-72
2021/06/09 04:05:50;;;;;;;7.70;1.35;;;15.40;99.90;;;;;;5072142;28;20485;-72
2021/06/09 04:08:16;;;;;;;7.38;1.30;;;15.30;99.90;;;;;;5072188;28;20788;-72
2021/06/09 04:10:44;;;;;;;4.53;1.65;;;15.30;99.90;;;;;;5077176;28;20552;-72
2021/06/09 04:13:10;;;;;;;5.60;1.40;;;15.30;99.90;;;;;;5074795;28;20336;-72
2021/06/09 04:15:38;;;;;;;5.32;1.88;;;15.40;99.90;;;;;;5074091;28;20130;-72
2021/06/09 04:18:06;;;;;;;3.55;1.33;;;15.30;99.90;;;;;;5056941;28;20032;-72
2021/06/09 04:20:33;;;;;;;4.88;2.10;;;15.30;99.90;;;;;;5059657;28;20048;-72
2021/06/09 04:22:59;;;;;;;9.55;1.85;;;15.30;99.90;;;;;;5073517;28;20097;-72
2021/06/09 04:25:25;;;;;;;9.63;2.28;;;15.40;99.90;;;;;;5074613;28;20051;-72
2021/06/09 04:27:52;;;;;;;6.53;2.33;;;15.40;99.90;;;;;;5074537;28;20024;-72
2021/06/09 04:30:20;;;;;;;5.05;2.35;;;15.40;99.90;;;;;;5076060;28;20036;-72
2021/06/09 04:32:56;;;;;;;6.57;2.67;;;15.40;99.90;;;;;;5074481;28;20032;-72
2021/06/09 04:35:25;;;;;;;7.15;1.95;;;15.30;99.90;;;;;;5076008;28;20136;-72
2021/06/09 04:37:51;;;;;;;5.25;1.77;;;15.30;99.90;;;;;;5074991;28;20039;-72
2021/06/09 04:40:25;;;;;;;6.68;2.13;;;15.30;99.90;;;;;;5075943;28;20063;-72
2021/06/09 04:42:52;;;;;;;2.65;1.70;;;15.30;99.90;;;;;;5074117;28;20032;-72
2021/06/09 04:45:19;;;;;;;11.07;1.63;;;15.20;99.90;;;;;;5080709;28;20075;-72
2021/06/09 04:47:46;;;;;;;4.50;1.30;;;15.30;99.90;;;;;;5072089;28;20424;-72
2021/06/09 04:50:19;;;;;;;5.40;1.38;;;15.30;99.90;;;;;;5071781;28;20043;-72
2021/06/09 04:52:45;;;;;;;4.75;1.70;;;15.40;99.90;;;;;;5071869;28;20028;-72
2021/06/09 04:55:11;;;;;;;4.57;1.90;;;15.40;99.90;;;;;;5079628;28;20476;-72
2021/06/09 04:57:37;;;;;;;5.50;2.10;;;15.50;99.90;;;;;;5072170;28;20490;-72
2021/06/09 05:00:06;;;;;;;4.93;1.75;;;15.50;99.90;;;;;;5073594;28;21037;-72
2021/06/09 05:02:32;;;;;;;5.03;1.85;;;15.60;99.90;;;;;;5079868;28;20189;-72
2021/06/09 05:04:58;;;;;;;5.90;1.95;;;15.60;99.90;;;;;;5080866;28;20060;-73
2021/06/09 05:07:23;;;;;;;8.32;2.10;;;15.70;99.90;;;;;;5082208;28;20561;-72
2021/06/09 05:09:49;;;;;;;6.05;2.20;;;15.70;99.90;;;;;;5074117;28;20023;-72
2021/06/09 05:12:24;;;;;;;6.25;2.20;;;15.70;99.90;;;;;;5077089;28;20036;-73
2021/06/09 05:14:54;;;;;;;6.72;2.72;;;15.80;99.90;;;;;;5080557;28;20043;-72
2021/06/09 05:17:25;;;;;;;9.90;6.72;;;15.80;99.90;;;;;;5080872;28;20508;-72
2021/06/09 05:19:52;;;;;;;6.25;3.00;;;15.80;99.90;;;;;;5076470;28;20039;-72
2021/06/09 05:22:29;;;;;;;2.95;1.50;;;15.80;99.90;;;;;;5075026;28;20016;-72
2021/06/09 05:24:57;;;;;;;4.30;2.65;;;15.70;99.90;;;;;;5059949;28;20024;-73
2021/06/09 05:27:23;;;;;;;4.10;2.65;;;15.70;99.90;;;;;;5080541;28;20382;-72
2021/06/09 05:29:51;;;;;;;11.30;2.42;;;15.80;99.90;;;;;;5077268;28;20125;-72
2021/06/09 05:32:18;;;;;;;5.03;1.63;;;15.80;99.90;;;;;;5083292;28;20024;-72
2021/06/09 05:34:45;;;;;;;3.38;2.25;;;15.90;99.90;;;;;;5077326;28;20036;-72
2021/06/09 05:37:14;;;;;;;9.93;3.78;;;15.90;99.90;;;;;;5082255;28;20027;-72
2021/06/09 05:39:39;;;;;;;5.40;2.95;;;15.90;99.90;;;;;;5079998;28;20111;-72
2021/06/09 05:42:11;;;;;;;6.30;2.63;;;16.00;99.90;;;;;;5083117;28;20666;-72
2021/06/09 05:44:40;;;;;;;10.97;4.50;;;16.00;99.90;;;;;;5083886;28;20028;-72
2021/06/09 05:47:06;;;;;;;9.27;5.15;;;16.00;99.90;;;;;;5081996;28;20377;-72
2021/06/09 05:49:32;;;;;;;7.82;4.55;;;16.00;99.90;;;;;;5082581;28;20126;-72
2021/06/09 05:51:58;;;;;;;9.80;3.72;;;16.10;99.90;;;;;;5084339;28;20063;-72
2021/06/09 05:54:24;;;;;;;9.35;4.22;;;16.10;99.90;;;;;;5072889;28;20611;-72
2021/06/09 05:56:50;;;;;;;7.47;4.85;;;16.20;99.90;;;;;;5076835;28;20564;-73
2021/06/09 05:59:16;;;;;;;8.20;4.43;;;16.30;99.90;;;;;;5065766;28;20059;-72
2021/06/09 06:01:43;;;;;;;6.85;3.65;;;16.30;99.90;;;;;;5073719;28;20549;-72
2021/06/09 06:04:10;;;;;;;7.50;3.03;;;16.30;99.90;;;;;;5075720;28;20020;-72
2021/06/09 06:06:37;;;;;;;5.55;1.83;;;16.40;99.90;;;;;;5063105;28;20082;-72
2021/06/09 06:09:04;;;;;;;9.13;1.85;;;16.40;99.90;;;;;;5074296;28;20506;-72
2021/06/09 06:11:30;;;;;;;3.35;1.63;;;16.40;99.90;;;;;;5083022;28;20487;-72
2021/06/09 06:13:56;;;;;;;3.83;1.90;;;16.50;99.90;;;;;;5077629;28;20036;-72
2021/06/09 06:16:22;;;;;;;4.20;1.23;;;16.50;99.90;;;;;;5082275;28;20961;-73
2021/06/09 06:18:50;;;;;;;8.07;2.13;;;16.50;99.90;;;;;;5075870;28;20044;-72
2021/06/09 06:21:17;;;;;;;7.03;4.38;;;16.50;99.90;;;;;;5081053;28;20032;-73
2021/06/09 06:23:44;;;;;;;8.82;3.72;;;16.80;99.90;;;;;;5077240;28;20033;-72
2021/06/09 06:26:14;;;;;;;8.70;3.45;;;16.90;99.90;;;;;;5081181;28;20438;-72
2021/06/09 06:28:41;;;;;;;6.50;2.70;;;16.90;99.90;;;;;;5063532;28;20024;-72
2021/06/09 06:31:15;;;;;;;6.50;1.10;;;17.10;99.90;;;;;;5074504;28;20028;-72
2021/06/09 06:33:43;;;;;;;4.47;1.10;;;17.10;99.90;;;;;;5076535;28;20109;-72
2021/06/09 06:36:11;;;;;;;5.03;1.30;;;17.10;99.90;;;;;;5078311;28;20116;-72
2021/06/09 06:38:37;;;;;;;4.72;2.20;;;17.20;99.90;;;;;;5076045;28;20039;-72
2021/06/09 06:41:07;;;;;;;3.20;1.23;;;17.20;99.90;;;;;;5080714;28;20056;-72
2021/06/09 06:43:36;;;;;;;4.93;1.40;;;17.30;99.90;;;;;;5079196;28;20035;-72
2021/06/09 06:46:03;;;;;;;2.53;1.00;;;17.50;99.90;;;;;;5076204;28;20028;-72
2021/06/09 06:48:31;;;;;;;8.25;1.80;;;17.50;99.90;;;;;;5073912;28;20024;-72
2021/06/09 06:50:57;;;;;;;4.32;2.38;;;17.50;99.90;;;;;;5075005;28;20660;-73
2021/06/09 06:53:23;;;;;;;7.00;3.35;;;17.90;99.90;;;;;;5076760;28;20029;-72
2021/06/09 06:55:49;;;;;;;9.20;2.50;;;18.10;99.90;;;;;;5083795;28;20071;-72
2021/06/09 06:58:15;;;;;;;7.53;3.22;;;18.20;99.90;;;;;;5079436;28;20119;-72
2021/06/09 07:00:41;;;;;;;5.53;2.15;;;18.20;99.90;;;;;;5074991;28;20445;-72
2021/06/09 07:03:08;;;;;;;6.93;3.03;;;18.20;99.90;;;;;;5079714;28;20035;-73
2021/06/09 07:05:35;;;;;;;6.20;1.98;;;18.40;99.90;;;;;;5079207;28;20044;-72
2021/06/09 07:08:02;;;;;;;5.07;2.42;;;18.70;99.90;;;;;;5075404;28;20063;-72
2021/06/09 07:10:28;;;;;;;7.45;2.65;;;19.20;99.90;;;;;;5075684;28;20119;-72
2021/06/09 07:12:59;;;;;;;5.82;2.97;;;19.70;99.90;;;;;;5054632;28;20035;-73
2021/06/09 07:15:27;;;;;;;5.75;1.80;;;19.90;99.90;;;;;;5073757;28;20056;-73
2021/06/09 07:17:56;;;;;;;4.97;2.53;;;20.00;99.90;;;;;;5073535;28;20389;-72
2021/06/09 07:20:24;;;;;;;4.25;1.77;;;20.10;99.90;;;;;;5076937;28;20032;-72
2021/06/09 07:22:53;;;;;;;4.50;1.35;;;20.10;99.90;;;;;;5073794;28;20035;-73
2021/06/09 07:25:20;;;;;;;5.13;0.90;;;19.50;99.90;;;;;;5074322;28;20093;-72
2021/06/09 07:27:50;;;;;;;4.82;0.75;;;19.50;99.90;;;;;;5074545;28;20490;-72
2021/06/09 07:30:19;;;;;;;6.05;1.10;;;19.80;99.90;;;;;;5076646;28;20218;-73
2021/06/09 07:32:47;;;;;;;3.17;0.70;;;19.50;99.90;;;;;;5068995;28;20040;-72
2021/06/09 07:35:15;;;;;;;6.88;0.75;;;19.60;99.90;;;;;;5078693;28;20032;-73
2021/06/09 07:37:49;;;;;;;3.67;0.70;;;19.90;99.90;;;;;;5078113;28;20047;-72
2021/06/09 07:40:37;;;;;;;4.10;0.90;;;19.60;99.90;;;;;;5081214;28;20629;-72
2021/06/09 07:43:08;;;;;;;4.03;1.00;;;20.00;99.90;;;;;;5082883;28;20028;-72
2021/06/09 07:45:34;;;;;;;3.70;1.25;;;20.20;99.90;;;;;;5076960;28;20032;-72
2021/06/09 07:48:01;;;;;;;1.52;0.82;;;20.60;99.90;;;;;;5078076;28;20033;-72
2021/06/09 07:50:52;;;;;;;4.07;0.77;;;21.10;99.90;;;;;;5075155;28;20397;-73
2021/06/09 07:53:18;;;;;;;4.50;1.15;;;21.10;99.90;;;;;;5067472;28;20055;-72
2021/06/09 07:55:47;;;;;;;5.78;1.50;;;21.30;99.90;;;;;;5075327;28;20040;-72
2021/06/09 07:58:15;;;;;;;3.78;1.50;;;21.00;99.90;;;;;;5070555;28;20035;-72
2021/06/09 08:00:42;;;;;;;7.43;1.40;;;21.00;99.90;;;;;;5055417;28;20024;-72
2021/06/09 08:03:08;;;;;;;6.53;1.33;;;20.90;99.90;;;;;;5074050;28;20339;-72
2021/06/09 08:05:34;;;;;;;5.28;1.40;;;20.70;99.90;;;;;;5072919;28;20024;-73
2021/06/09 08:08:00;;;;;;;6.40;1.60;;;20.40;99.90;;;;;;5076867;28;20457;-72
2021/06/09 08:10:26;;;;;;;4.40;1.10;;;20.60;99.90;;;;;;5082821;28;20035;-72
2021/06/09 08:12:54;;;;;;;4.53;1.10;;;21.00;99.90;;;;;;5073386;28;20576;-73
2021/06/09 08:15:21;;;;;;;3.20;1.30;;;21.50;99.90;;;;;;5069299;28;20348;-73
2021/06/09 08:17:48;;;;;;;3.42;0.85;;;21.40;99.90;;;;;;5072549;28;20028;-73
2021/06/09 08:20:17;;;;;;;3.10;1.00;;;22.20;99.90;;;;;;5078895;28;20520;-73
2021/06/09 08:22:45;;;;;;;3.00;0.95;;;22.80;99.90;;;;;;5075414;28;20123;-73
2021/06/09 08:25:18;;;;;;;3.50;1.15;;;23.50;99.90;;;;;;5054902;28;20134;-73
2021/06/09 08:27:44;;;;;;;3.67;1.20;;;23.50;99.90;;;;;;5076053;28;20854;-73
2021/06/09 08:30:10;;;;;;;3.00;1.00;;;22.50;99.90;;;;;;5081881;28;20070;-73
2021/06/09 08:32:36;;;;;;;5.10;1.17;;;22.90;99.90;;;;;;5060725;28;20110;-73
2021/06/09 08:35:05;;;;;;;1.60;0.90;;;23.40;99.90;;;;;;5073781;28;20068;-73
2021/06/09 08:37:30;;;;;;;4.00;1.00;;;23.90;99.90;;;;;;5077393;28;20484;-73
2021/06/09 08:39:56;;;;;;;4.03;0.98;;;24.30;99.90;;;;;;5078952;28;20124;-73
2021/06/09 08:42:25;;;;;;;5.60;1.00;;;24.80;99.90;;;;;;5076381;28;20066;-73
2021/06/09 08:44:51;;;;;;;3.35;1.00;;;24.20;99.90;;;;;;5070961;28;20028;-73
2021/06/09 08:47:17;;;;;;;6.10;1.08;;;24.40;99.90;;;;;;5071031;28;20028;-73
2021/06/09 08:49:44;;;;;;;4.60;1.00;;;23.20;99.90;;;;;;5080822;28;20020;-73
2021/06/09 08:52:11;;;;;;;5.15;1.00;;;23.20;99.90;;;;;;5075000;28;20043;-73
2021/06/09 08:54:42;;;;;;;5.93;1.10;;;24.10;99.90;;;;;;5075762;28;20028;-73
2021/06/09 08:57:08;;;;;;;2.70;1.25;;;24.80;99.90;;;;;;5079599;28;20047;-73
2021/06/09 08:59:35;;;;;;;3.70;1.30;;;24.70;99.90;;;;;;5061616;28;20032;-73
2021/06/09 09:02:01;;;;;;;7.28;1.40;;;24.20;99.90;;;;;;5076808;28;20028;-73
2021/06/09 09:04:28;;;;;;;4.80;1.00;;;23.20;99.90;;;;;;5073229;28;20748;-73
2021/06/09 09:06:54;;;;;;;13.77;1.60;;;23.50;99.90;;;;;;5070718;28;20511;-73
2021/06/09 09:09:20;;;;;;;6.32;1.33;;;23.00;99.90;;;;;;5073092;28;20043;-73
2021/06/09 09:11:45;;;;;;;5.85;1.30;;;23.00;99.90;;;;;;5074193;28;20145;-73
2021/06/09 09:14:15;;;;;;;5.63;1.40;;;22.90;99.90;;;;;;5063561;28;20066;-73
2021/06/09 09:17:20;;;;;;;3.92;1.17;;;23.00;99.90;;;;;;5076619;28;20048;-73
2021/06/09 09:19:46;;;;;;;5.57;1.40;;;23.40;99.90;;;;;;5070160;28;20036;-73
2021/06/09 09:22:33;;;;;;;3.15;1.10;;;23.20;99.90;;;;;;5078144;28;20032;-73
2021/06/09 09:24:58;;;;;;;5.38;1.10;;;23.30;99.90;;;;;;5077343;28;20039;-73
2021/06/09 09:27:29;;;;;;;2.42;1.10;;;22.80;99.90;;;;;;5073629;28;20107;-73
2021/06/09 09:30:07;;;;;;;3.55;1.20;;;22.70;99.90;;;;;;5074312;28;20029;-73
2021/06/09 09:32:33;;;;;;;4.72;1.10;;;22.80;99.90;;;;;;5078700;28;20052;-73
2021/06/09 09:35:12;;;;;;;3.70;0.95;;;23.50;99.90;;;;;;5060730;28;20039;-73
2021/06/09 09:37:38;;;;;;;4.00;0.98;;;23.90;99.90;;;;;;5077026;28;20073;-73
2021/06/09 09:40:17;;;;;;;2.70;1.10;;;24.10;99.90;;;;;;5079465;28;20028;-73
2021/06/09 09:42:47;;;;;;;3.17;1.35;;;24.20;99.90;;;;;;5082766;28;20039;-72
2021/06/09 09:45:23;;;;;;;2.65;1.02;;;24.30;99.90;;;;;;5074843;28;20028;-72
2021/06/09 09:48:08;;;;;;;3.30;1.38;;;24.00;99.90;;;;;;5077222;28;20039;-72
2021/06/09 09:50:46;;;;;;;7.57;1.20;;;24.20;99.90;;;;;;5075870;28;20054;-72
2021/06/09 09:53:21;;;;;;;3.00;1.20;;;23.70;99.90;;;;;;5080229;28;20084;-72
2021/06/09 09:56:05;;;;;;;3.17;0.90;;;24.10;99.90;;;;;;5079236;28;20028;-72
2021/06/09 09:58:33;;;;;;;2.85;1.00;;;24.20;99.90;;;;;;5080104;28;20059;-72
2021/06/09 10:01:20;;;;;;;3.58;1.45;;;24.00;99.90;;;;;;5064729;28;20494;-72
2021/06/09 10:03:51;;;;;;;3.63;1.40;;;23.90;99.90;;;;;;5077169;28;20032;-72
2021/06/09 10:06:22;;;;;;;4.77;1.57;;;23.10;99.90;;;;;;5076635;28;20012;-72
2021/06/09 10:08:49;;;;;;;3.70;1.45;;;23.00;99.90;;;;;;5069201;28;20472;-72
2021/06/09 10:11:17;;;;;;;6.35;1.80;;;23.10;99.90;;;;;;5079516;28;20051;-72
2021/06/09 10:13:44;;;;;;;4.80;1.70;;;23.60;99.90;;;;;;5071983;28;20040;-72
2021/06/09 10:16:33;;;;;;;6.00;1.25;;;23.40;99.90;;;;;;5081321;28;20060;-72
2021/06/09 10:19:08;;;;;;;4.63;1.40;;;23.30;99.90;;;;;;5081880;28;20040;-72
2021/06/09 10:21:53;;;;;;;2.53;1.20;;;23.50;99.90;;;;;;5078563;28;20071;-72
2021/06/09 10:24:19;;;;;;;4.05;1.45;;;23.40;99.90;;;;;;5073079;28;20034;-72
2021/06/09 10:26:52;;;;;;;4.55;1.25;;;23.90;99.90;;;;;;5074344;28;20036;-72
2021/06/09 10:29:21;;;;;;;5.25;1.17;;;23.90;99.90;;;;;;5082097;28;20103;-72
2021/06/09 10:32:08;;;;;;;1.98;1.02;;;23.80;99.90;;;;;;5076436;28;20575;-72
2021/06/09 10:34:36;;;;;;;2.42;1.10;;;24.10;99.90;;;;;;5072957;28;20038;-72
2021/06/09 10:37:04;;;;;;;2.15;0.90;;;23.60;99.90;;;;;;5078378;28;20036;-72
2021/06/09 10:39:32;;;;;;;3.45;1.20;;;23.80;99.90;;;;;;5076245;28;20610;-72
2021/06/09 10:42:04;;;;;;;3.05;0.90;;;24.30;99.90;;;;;;5073038;28;20047;-72
2021/06/09 10:44:45;;;;;;;1.38;0.77;;;24.70;99.90;;;;;;5077760;28;20016;-72
2021/06/09 10:47:26;;;;;;;2.90;0.70;;;25.00;99.90;;;;;;5077071;28;20526;-72
2021/06/09 10:49:52;;;;;;;1.70;0.80;;;24.60;99.90;;;;;;5079480;28;20028;-72
2021/06/09 10:52:18;;;;;;;1.88;0.70;;;24.20;99.90;;;;;;5072170;28;20051;-72
2021/06/09 10:54:45;;;;;;;2.53;0.90;;;24.10;99.90;;;;;;5073711;28;20484;-72
2021/06/09 10:57:11;;;;;;;4.30;0.80;;;23.60;99.90;;;;;;5078656;28;20042;-72
2021/06/09 10:59:37;;;;;;;1.33;0.68;;;23.80;99.90;;;;;;5077973;28;20040;-72
2021/06/09 11:02:19;;;;;;;1.63;0.70;;;24.10;99.90;;;;;;5076382;28;20123;-72
2021/06/09 11:04:48;;;;;;;3.30;0.90;;;24.60;99.90;;;;;;5078929;28;20031;-72
2021/06/09 11:07:33;;;;;;;3.55;1.02;;;24.50;99.90;;;;;;5070409;28;20067;-72
2021/06/09 11:10:34;;;;;;;3.35;1.00;;;23.90;99.90;;;;;;5074260;28;20047;-72
2021/06/09 11:13:00;;;;;;;2.35;1.30;;;24.60;99.90;;;;;;5069789;28;20052;-72
2021/06/09 11:15:32;;;;;;;4.60;1.45;;;24.80;99.90;;;;;;5074852;28;20048;-72
2021/06/09 11:18:00;;;;;;;2.45;1.00;;;25.10;99.90;;;;;;5077864;28;20101;-72
2021/06/09 11:20:34;;;;;;;4.57;1.35;;;25.40;99.90;;;;;;5067515;28;20025;-72
2021/06/09 11:23:05;;;;;;;3.47;1.67;;;25.50;99.90;;;;;;5078201;28;20497;-72
2021/06/09 11:25:43;;;;;;;2.95;1.40;;;25.30;99.90;;;;;;5077026;28;21264;-72
2021/06/09 11:28:12;;;;;;;3.80;1.23;;;25.10;99.90;;;;;;5073818;28;20036;-72
2021/06/09 11:30:47;;;;;;;2.92;1.40;;;25.80;99.90;;;;;;5076537;28;20040;-72
2021/06/09 11:33:44;;;;;;;2.42;1.25;;;26.10;99.90;;;;;;5079306;28;20035;-72
2021/06/09 11:36:18;;;;;;;3.58;1.80;;;26.50;99.90;;;;;;5057739;28;20556;-72
2021/06/09 11:38:46;;;;;;;3.53;1.80;;;26.70;99.90;;;;;;5073878;28;20093;-72
2021/06/09 11:41:16;;;;;;;5.22;1.45;;;26.70;99.90;;;;;;5080953;28;20504;-72
2021/06/09 11:43:49;;;;;;;6.50;1.73;;;26.20;99.90;;;;;;5071454;28;20040;-72
2021/06/09 11:46:18;;;;;;;4.88;1.65;;;26.00;99.90;;;;;;5073740;28;20066;-72
2021/06/09 11:48:59;;;;;;;3.38;1.40;;;25.90;99.90;;;;;;5080506;28;20036;-72
2021/06/09 11:51:32;;;;;;;3.70;1.50;;;25.60;99.90;;;;;;5056099;28;20489;-72
2021/06/09 11:54:01;;;;;;;3.17;1.55;;;25.00;99.90;;;;;;5059651;28;20072;-72
2021/06/09 11:56:27;;;;;;;4.70;1.52;;;24.90;99.90;;;;;;5075873;28;20067;-72
2021/06/09 11:58:56;;;;;;;3.40;1.60;;;25.20;99.90;;;;;;5081400;28;20450;-72
2021/06/09 12:01:23;;;;;;;3.00;1.20;;;25.30;99.90;;;;;;5072088;28;20028;-72
2021/06/09 12:04:08;;;;;;;4.78;1.65;;;25.10;99.90;;;;;;5075519;28;20031;-72
2021/06/09 12:06:53;;;;;;;2.53;1.30;;;25.20;99.90;;;;;;5076286;28;20020;-72
2021/06/09 12:09:20;;;;;;;4.35;1.40;;;24.90;99.90;;;;;;5080258;28;20036;-72
2021/06/09 12:11:50;;;;;;;3.60;1.88;;;25.10;99.90;;;;;;5076173;28;20048;-72
2021/06/09 12:14:24;;;;;;;4.10;1.75;;;25.10;99.90;;;;;;5075069;28;20128;-72
2021/06/09 12:16:51;;;;;;;7.00;1.88;;;25.10;99.90;;;;;;5060165;28;20455;-72
2021/06/09 12:19:21;;;;;;;3.75;1.40;;;25.00;99.90;;;;;;5080692;28;20027;-72
2021/06/09 12:21:47;;;;;;;2.47;1.40;;;25.10;99.90;;;;;;5079290;28;20032;-72
2021/06/09 12:24:15;;;;;;;5.03;1.35;;;25.20;99.90;;;;;;5060783;28;20032;-72
2021/06/09 12:26:53;;;;;;;3.25;1.50;;;25.30;99.90;;;;;;5077751;28;20032;-72
2021/06/09 12:29:23;;;;;;;6.00;1.50;;;25.60;99.90;;;;;;5082178;28;20385;-72
2021/06/09 12:31:48;;;;;;;3.50;1.58;;;25.60;99.90;;;;;;5081712;28;20452;-72
2021/06/09 12:34:26;;;;;;;2.92;1.25;;;25.40;99.90;;;;;;5074809;28;20123;-72
2021/06/09 12:37:04;;;;;;;4.22;1.10;;;25.50;99.90;;;;;;5060193;28;20478;-72
2021/06/09 12:39:30;;;;;;;4.63;1.48;;;25.50;99.90;;;;;;5058585;28;20150;-72
2021/06/09 12:41:56;;;;;;;7.95;2.40;;;25.80;99.90;;;;;;5078051;28;20039;-72
2021/06/09 12:44:23;;;;;;;22.95;6.20;;;25.70;99.90;;;;;;5067136;28;20028;-72
2021/06/09 12:47:00;;;;;;;3.67;1.40;;;25.60;99.90;;;;;;5069028;28;20113;-72
2021/06/09 12:49:32;;;;;;;10.15;2.67;;;25.80;99.90;;;;;;5074978;28;20427;-72
2021/06/09 12:52:06;;;;;;;5.90;2.17;;;26.00;99.90;;;;;;5055554;28;20119;-72
2021/06/09 12:54:32;;;;;;;3.55;1.10;;;26.20;99.90;;;;;;5070702;28;20039;-72
2021/06/09 12:56:58;;;;;;;4.18;1.50;;;26.50;99.90;;;;;;5078553;28;20043;-72
2021/06/09 12:59:33;;;;;;;3.92;1.40;;;26.30;99.90;;;;;;5080182;28;20085;-72
2021/06/09 13:01:59;;;;;;;3.85;1.65;;;26.20;99.90;;;;;;5073909;28;20032;-72